< Typhoon 197131 1971 Season Typhoon 197133 >
Typhoon 197132 (FAYE)
General InformationTrack Information on Google Maps || Disaster Info.ResourceGoogle EarthGE AnimationAtom FeedGeoJSON
Detalied Best Track (Time Zone = UTC)
Year Month Day Hour Lat. Long. Pressure (hPa) Wind (kt) Class Image Chart
1971 10 4 06 12.4 159.0 1004 0 2 -- Chart
1971 10 4 12 12.7 157.7 1000 0 2 -- Chart
1971 10 4 18 12.8 156.3 992 0 9 -- Chart
1971 10 5 00 13.2 154.3 992 0 9 -- Chart
1971 10 5 06 13.5 152.4 992 0 9 -- Chart
1971 10 5 12 14.0 150.9 992 0 9 -- Chart
1971 10 5 18 14.5 149.5 992 0 9 -- Chart
1971 10 6 00 15.0 147.3 992 0 9 -- Chart
1971 10 6 06 15.5 144.7 994 0 9 -- Chart
1971 10 6 12 16.0 142.6 996 0 9 -- Chart
1971 10 6 18 16.0 140.8 998 0 9 -- Chart
1971 10 7 00 16.0 138.6 1000 0 9 -- Chart
1971 10 7 06 16.4 137.2 1000 0 9 -- Chart
1971 10 7 12 16.2 135.7 1000 0 9 -- Chart
1971 10 7 18 15.4 134.5 1000 0 9 -- Chart
1971 10 8 00 14.4 133.2 998 0 9 -- Chart
1971 10 8 06 14.5 132.0 998 0 9 -- Chart
1971 10 8 12 14.7 131.5 996 0 9 -- Chart
1971 10 8 18 14.8 131.0 996 0 9 -- Chart
1971 10 9 00 15.0 130.0 994 0 9 -- Chart
1971 10 9 06 15.4 128.5 990 0 9 -- Chart
1971 10 9 12 15.7 127.3 990 0 9 -- Chart
1971 10 9 18 16.0 126.0 990 0 9 -- Chart
1971 10 10 00 16.4 124.8 990 0 9 -- Chart
1971 10 10 06 16.8 123.6 990 0 9 -- Chart
1971 10 10 12 17.0 122.0 985 0 9 -- Chart
1971 10 10 18 17.0 120.0 985 0 9 -- Chart
1971 10 11 00 15.6 118.5 985 0 9 -- Chart
1971 10 11 06 15.3 118.7 985 0 9 -- Chart
1971 10 11 12 14.5 119.2 985 0 9 -- Chart
1971 10 11 18 14.3 119.7 985 0 9 -- Chart
1971 10 12 00 14.0 120.0 985 0 9 -- Chart
1971 10 12 06 13.8 121.0 985 0 9 -- Chart
1971 10 12 12 14.3 121.9 990 0 9 -- Chart
1971 10 12 18 15.0 122.8 990 0 9 -- Chart
1971 10 13 00 16.0 123.5 992 0 9 -- Chart
1971 10 13 06 16.8 124.1 992 0 9 -- Chart
1971 10 13 12 18.0 125.0 992 0 9 -- Chart
1971 10 13 18 19.0 126.0 992 0 9 -- Chart
1971 10 14 00 20.0 127.0 992 0 9 -- Chart
1971 10 14 06 20.8 128.0 996 0 9 -- Chart
1971 10 14 12 21.5 128.8 998 0 9 -- Chart
1971 10 14 18 22.3 129.9 1000 0 9 -- Chart
1971 10 15 00 23.0 132.0 1004 0 9 -- Chart
1971 10 15 06 23.7 133.5 1010 0 2 -- Chart
1971 10 15 12 24.5 135.0 1014 0 2 -- Chart
1971 10 15 18 25.3 135.8 1012 0 6 -- Chart
1971 10 16 00 26.0 138.9 1014 0 6 -- Chart
Japan Meteorological Agency Best Track Data | Correction Date : 1990-10-17
< Typhoon 197131 1971 Season Typhoon 197133 >

Help